Time;durP1;ratioP1;P1;durP2;ratioP2;P2;SDS_P1;SDS_P2;PMS_P1;PMS_P2;Temp;Humidity;BMP_temperature;BMP_pressure;BME280_temperature;BME280_humidity;BME280_pressure;Samples;Min_cycle;Max_cycle;Signal;HPM_P1;HPM_P2
2021/06/06 00:00:55;;;;;;;5.60;4.37;;;;;;;19.37;43.79;95317.38;5070785;28;20481;-64
2021/06/06 00:03:34;;;;;;;5.00;4.60;;;;;;;19.30;43.57;95316.19;5060287;28;20525;-63
2021/06/06 00:06:26;;;;;;;5.33;4.83;;;;;;;19.40;43.56;95318.63;5053710;28;20538;-63
2021/06/06 00:08:54;;;;;;;6.17;4.53;;;;;;;19.41;43.14;95312.25;5052754;28;20463;-63
2021/06/06 00:11:31;;;;;;;7.33;4.80;;;;;;;19.38;43.05;95307.56;5067326;28;20442;-65
2021/06/06 00:14:00;;;;;;;4.77;4.30;;;;;;;19.18;43.77;95301.56;5059899;28;20519;-65
2021/06/06 00:16:34;;;;;;;5.13;4.20;;;;;;;19.25;43.75;95308.34;5059207;28;20454;-64
2021/06/06 00:19:01;;;;;;;5.77;5.27;;;;;;;19.14;43.99;95303.22;5059704;28;20978;-64
2021/06/06 00:21:29;;;;;;;9.17;5.17;;;;;;;18.98;45.03;95317.13;5072690;28;20812;-64
2021/06/06 00:23:57;;;;;;;7.10;4.93;;;;;;;18.56;46.20;95310.28;5052281;28;20561;-64
2021/06/06 00:26:25;;;;;;;9.50;4.90;;;;;;;18.84;45.05;95311.84;5065087;28;20433;-64
2021/06/06 00:28:53;;;;;;;7.90;4.93;;;;;;;19.01;44.73;95306.69;5058223;28;20931;-63
2021/06/06 00:31:21;;;;;;;5.63;4.63;;;;;;;18.93;45.54;95307.41;5071426;28;20481;-63
2021/06/06 00:33:49;;;;;;;6.40;5.27;;;;;;;18.80;45.86;95308.22;5057919;28;20450;-63
2021/06/06 00:36:18;;;;;;;7.60;5.03;;;;;;;18.75;46.55;95310.97;5070900;28;20438;-65
2021/06/06 00:38:46;;;;;;;6.27;5.40;;;;;;;18.62;47.31;95306.44;5070699;28;20435;-64
2021/06/06 00:41:15;;;;;;;7.23;4.80;;;;;;;18.71;47.41;95309.19;5072638;28;20469;-65
2021/06/06 00:43:45;;;;;;;9.00;5.30;;;;;;;18.72;47.68;95303.56;5070518;28;20426;-65
2021/06/06 00:46:17;;;;;;;7.67;5.10;;;;;;;18.70;47.68;95313.69;5061074;28;20436;-63
2021/06/06 00:48:46;;;;;;;7.77;5.70;;;;;;;18.77;47.26;95303.50;5068221;28;20438;-64
2021/06/06 00:51:27;;;;;;;6.73;5.27;;;;;;;18.76;48.17;95315.19;5072445;28;20441;-64
2021/06/06 00:54:03;;;;;;;6.60;5.70;;;;;;;18.69;48.32;95306.84;5070677;28;20442;-64
2021/06/06 00:56:30;;;;;;;7.60;5.60;;;;;;;18.71;48.40;95309.19;5072418;28;20444;-64
2021/06/06 00:59:01;;;;;;;8.30;5.80;;;;;;;18.54;48.68;95299.16;5068680;28;20530;-63
2021/06/06 01:01:31;;;;;;;8.97;5.97;;;;;;;18.43;49.17;95308.41;5061855;28;20490;-64
2021/06/06 01:04:00;;;;;;;6.60;5.83;;;;;;;18.56;48.62;95306.81;5056938;28;21407;-63
2021/06/06 01:06:33;;;;;;;9.50;6.10;;;;;;;18.69;48.34;95301.53;5070993;28;20466;-64
2021/06/06 01:09:04;;;;;;;10.13;6.03;;;;;;;18.61;48.35;95304.84;5063124;28;20447;-63
2021/06/06 01:11:44;;;;;;;10.90;5.77;;;;;;;18.58;48.42;95304.66;5053234;28;20435;-63
2021/06/06 01:14:21;;;;;;;8.27;5.60;;;;;;;18.67;48.17;95309.00;5070787;28;20445;-64
2021/06/06 01:17:21;;;;;;;7.10;5.60;;;;;;;18.58;48.55;95310.75;5055123;28;20443;-63
2021/06/06 01:20:14;;;;;;;8.53;5.57;;;;;;;18.32;49.26;95306.22;5052307;28;20486;-65
2021/06/06 01:22:49;;;;;;;9.10;6.13;;;;;;;18.27;49.12;95304.41;5050769;28;20595;-64
2021/06/06 01:25:30;;;;;;;10.60;6.37;;;;;;;18.10;49.70;95301.56;5063967;28;20790;-63
2021/06/06 01:28:26;;;;;;;10.93;6.40;;;;;;;18.07;50.02;95297.63;5051724;28;20914;-63
2021/06/06 01:30:58;;;;;;;9.37;6.30;;;;;;;18.07;50.16;95294.19;5051668;28;20524;-64
2021/06/06 01:33:54;;;;;;;9.53;6.40;;;;;;;18.25;49.36;95285.34;5077878;28;20447;-63
2021/06/06 01:36:40;;;;;;;9.13;6.33;;;;;;;18.16;50.06;95285.25;5060458;28;20542;-62
2021/06/06 01:39:15;;;;;;;8.30;6.13;;;;;;;17.98;50.71;95291.41;5058076;28;20824;-64
2021/06/06 01:41:47;;;;;;;10.50;6.70;;;;;;;17.78;50.55;95289.09;5071531;28;20579;-63
2021/06/06 01:44:22;;;;;;;8.57;6.77;;;;;;;17.61;51.77;95280.91;5070082;28;20885;-64
2021/06/06 01:47:00;;;;;;;12.03;6.90;;;;;;;17.74;51.27;95279.38;5070080;28;20450;-65
2021/06/06 01:49:31;;;;;;;10.07;6.77;;;;;;;17.67;50.72;95282.41;5070485;28;20482;-63
2021/06/06 01:52:03;;;;;;;7.43;6.13;;;;;;;17.94;50.59;95268.41;5069758;28;20460;-64
2021/06/06 01:54:35;;;;;;;9.23;6.57;;;;;;;18.14;50.11;95273.34;5071314;28;20523;-64
2021/06/06 01:57:10;;;;;;;12.93;6.67;;;;;;;18.14;50.13;95268.84;5070150;28;20460;-63
2021/06/06 01:59:42;;;;;;;9.53;6.57;;;;;;;18.03;50.20;95267.47;5060849;28;20997;-67
2021/06/06 02:02:11;;;;;;;9.27;7.07;;;;;;;18.11;50.63;95273.94;5066632;28;20442;-65
2021/06/06 02:04:57;;;;;;;8.97;7.03;;;;;;;18.10;50.14;95261.78;5067659;28;20955;-64
2021/06/06 02:07:30;;;;;;;9.40;7.00;;;;;;;18.15;50.32;95264.34;5043917;28;20454;-64
2021/06/06 02:10:07;;;;;;;8.40;6.67;;;;;;;18.14;50.44;95268.84;5049028;28;20941;-64
2021/06/06 02:12:41;;;;;;;11.30;6.90;;;;;;;17.98;49.80;95264.09;5051676;28;20443;-65
2021/06/06 02:15:28;;;;;;;8.90;6.97;;;;;;;17.90;50.46;95262.91;5050008;28;20469;-64
2021/06/06 02:18:08;;;;;;;7.40;6.70;;;;;;;17.85;50.81;95259.56;5049283;28;20546;-64
2021/06/06 02:20:48;;;;;;;9.63;6.80;;;;;;;17.95;50.50;95259.41;5057053;28;20484;-64
2021/06/06 02:23:23;;;;;;;8.30;6.90;;;;;;;17.91;49.95;95255.75;5069117;28;20496;-66
2021/06/06 02:26:12;;;;;;;8.90;6.80;;;;;;;17.90;50.37;95251.53;5050917;28;20431;-64
2021/06/06 02:29:13;;;;;;;7.67;6.40;;;;;;;17.88;49.82;95248.38;5063085;28;20462;-64
2021/06/06 02:31:54;;;;;;;6.97;6.17;;;;;;;17.95;49.76;95251.44;5050335;28;20496;-63
2021/06/06 02:34:31;;;;;;;8.97;6.73;;;;;;;17.84;49.95;95242.09;5050782;28;20442;-64
2021/06/06 02:37:14;;;;;;;8.93;6.57;;;;;;;17.86;50.37;95245.25;5053716;28;20468;-64
2021/06/06 02:39:50;;;;;;;7.40;6.50;;;;;;;17.84;50.24;95255.34;5068870;28;20440;-64
2021/06/06 02:42:28;;;;;;;8.63;6.43;;;;;;;17.93;49.70;95256.25;5048784;28;21014;-63
2021/06/06 02:45:03;;;;;;;7.60;6.77;;;;;;;17.90;50.50;95251.53;5064238;28;20470;-63
2021/06/06 02:47:36;;;;;;;9.60;6.77;;;;;;;17.89;50.33;95256.03;5072946;28;20815;-63
2021/06/06 02:50:33;;;;;;;9.90;6.97;;;;;;;17.84;50.59;95252.69;5069843;28;20835;-63
2021/06/06 02:53:17;;;;;;;7.17;5.93;;;;;;;17.79;51.09;95250.13;5070104;28;20857;-62
2021/06/06 02:55:54;;;;;;;11.97;8.13;;;;;;;17.70;51.41;95251.88;5068350;28;20461;-63
2021/06/06 02:58:35;;;;;;;12.30;8.03;;;;;;;17.64;51.69;95253.84;5069722;28;20454;-64
2021/06/06 03:01:10;;;;;;;11.00;8.07;;;;;;;17.57;51.49;95257.94;5068341;28;20481;-64
2021/06/06 03:03:40;;;;;;;14.47;8.23;;;;;;;17.53;51.95;95262.22;5068199;28;20433;-63
2021/06/06 03:06:29;;;;;;;18.63;9.17;;;;;;;17.13;53.01;95264.38;5048913;28;20434;-64
2021/06/06 03:08:57;;;;;;;17.53;9.70;;;;;;;16.70;53.83;95265.50;5068396;28;20449;-64
2021/06/06 03:11:27;;;;;;;17.87;9.77;;;;;;;16.10;55.63;95271.47;5053810;28;20976;-64
2021/06/06 03:14:00;;;;;;;14.97;9.60;;;;;;;16.77;54.33;95265.16;5065084;28;20439;-64
2021/06/06 03:16:32;;;;;;;14.60;10.33;;;;;;;16.20;55.07;95268.72;5076056;28;20439;-64
2021/06/06 03:19:07;;;;;;;21.53;13.20;;;;;;;16.46;54.93;95270.00;5048277;28;20457;-63
2021/06/06 03:21:43;;;;;;;16.03;10.60;;;;;;;16.34;54.66;95266.97;5049997;28;20565;-63
2021/06/06 03:24:17;;;;;;;12.50;9.10;;;;;;;16.48;54.62;95273.19;5048188;28;21028;-63
2021/06/06 03:26:47;;;;;;;21.03;10.37;;;;;;;16.40;54.52;95271.13;5049408;28;20446;-63
2021/06/06 03:29:26;;;;;;;20.20;9.70;;;;;;;16.34;54.59;95274.09;5055747;28;20442;-63
2021/06/06 03:32:05;;;;;;;16.03;9.20;;;;;;;16.45;55.07;95265.78;5066365;28;20501;-64
2021/06/06 03:34:33;;;;;;;15.00;8.57;;;;;;;16.67;54.80;95265.28;5048508;28;20458;-64
2021/06/06 03:37:04;;;;;;;10.00;8.40;;;;;;;16.59;54.20;95264.06;5054656;28;20482;-64
2021/06/06 03:39:54;;;;;;;13.90;9.10;;;;;;;16.71;53.44;95267.09;5069368;28;20438;-63
2021/06/06 03:42:26;;;;;;;13.67;9.33;;;;;;;16.97;53.32;95270.97;5056828;28;20484;-63
2021/06/06 03:44:57;;;;;;;15.83;10.40;;;;;;;17.10;53.52;95264.16;5069061;28;20466;-63
2021/06/06 03:47:25;;;;;;;14.00;9.27;;;;;;;17.12;53.04;95235.53;5068396;28;20966;-63
2021/06/06 03:49:54;;;;;;;17.30;9.10;;;;;;;17.43;53.70;95265.00;5068143;28;20807;-63
2021/06/06 03:52:33;;;;;;;13.63;8.53;;;;;;;17.53;53.02;95262.22;5067852;28;20548;-63
2021/06/06 03:55:08;;;;;;;16.00;8.77;;;;;;;17.51;52.72;95256.44;5055026;28;20435;-63
2021/06/06 03:57:36;;;;;;;12.87;7.90;;;;;;;17.62;52.95;95265.78;5055837;28;20435;-63
2021/06/06 04:00:11;;;;;;;14.77;7.97;;;;;;;17.67;52.78;95257.75;5069337;28;20437;-63
2021/06/06 04:02:42;;;;;;;9.80;7.80;;;;;;;17.83;52.18;95253.75;5049770;28;20637;-63
2021/06/06 04:05:15;;;;;;;12.97;7.13;;;;;;;17.84;51.86;95255.34;5060726;28;20450;-64
2021/06/06 04:07:42;;;;;;;8.77;7.17;;;;;;;17.84;52.13;95247.41;5057825;28;20807;-64
2021/06/06 04:10:11;;;;;;;8.80;7.40;;;;;;;17.92;51.64;95254.66;5062591;28;20539;-64
2021/06/06 04:12:39;;;;;;;10.10;7.70;;;;;;;18.09;51.05;95254.88;5047840;28;20447;-64
2021/06/06 04:15:06;;;;;;;13.97;7.33;;;;;;;18.03;50.42;95251.53;5061939;28;20455;-64
2021/06/06 04:17:34;;;;;;;10.63;8.40;;;;;;;17.83;50.69;95245.81;5064867;28;20446;-65
2021/06/06 04:20:02;;;;;;;16.60;9.93;;;;;;;17.97;50.38;95246.63;5047674;28;20442;-63
2021/06/06 04:22:32;;;;;;;12.53;9.60;;;;;;;17.41;51.97;95260.00;5064272;28;20836;-64
2021/06/06 04:25:03;;;;;;;12.17;8.80;;;;;;;17.33;52.19;95265.16;5063342;28;20864;-64
2021/06/06 04:27:30;;;;;;;11.77;9.07;;;;;;;17.52;51.88;95260.63;5067842;28;20846;-63
2021/06/06 04:29:59;;;;;;;14.07;8.40;;;;;;;17.76;51.88;95246.19;5055282;28;20513;-64
2021/06/06 04:32:27;;;;;;;13.00;8.87;;;;;;;18.15;51.70;95254.53;5053141;28;20446;-65
2021/06/06 04:34:55;;;;;;;19.90;10.63;;;;;;;18.30;51.44;95260.63;5065221;28;20474;-63
2021/06/06 04:37:23;;;;;;;17.83;12.10;;;;;;;18.50;50.89;95266.34;5063937;28;20446;-63
2021/06/06 04:39:51;;;;;;;26.50;14.57;;;;;;;18.24;50.67;95262.56;5065906;28;20503;-64
2021/06/06 04:42:21;;;;;;;25.60;14.77;;;;;;;18.55;50.26;95268.91;5070690;28;20540;-64
2021/06/06 04:44:52;;;;;;;23.70;13.73;;;;;;;18.52;50.21;95269.47;5065092;28;20833;-64
2021/06/06 04:47:20;;;;;;;21.97;14.13;;;;;;;18.52;50.70;95269.47;5065660;28;20964;-65
2021/06/06 04:49:56;;;;;;;24.07;15.00;;;;;;;18.52;50.56;95272.13;5065059;28;20437;-64
2021/06/06 04:52:24;;;;;;;31.87;16.07;;;;;;;18.56;50.41;95275.78;5069833;28;20527;-63
2021/06/06 04:54:53;;;;;;;23.83;15.60;;;;;;;18.46;50.69;95280.50;5065865;28;20438;-64
2021/06/06 04:57:23;;;;;;;26.03;16.53;;;;;;;18.60;50.34;95282.06;5052856;28;20439;-63
2021/06/06 04:59:51;;;;;;;21.90;13.90;;;;;;;18.67;51.12;95285.09;5070891;28;20441;-63
2021/06/06 05:02:18;;;;;;;22.10;13.03;;;;;;;18.65;51.26;95279.31;5072078;28;20504;-63
2021/06/06 05:04:55;;;;;;;19.47;12.73;;;;;;;18.96;50.76;95274.94;5060389;28;20867;-63
2021/06/06 05:07:22;;;;;;;18.37;11.90;;;;;;;18.95;50.32;95273.38;5060030;28;20462;-63
2021/06/06 05:09:52;;;;;;;16.43;11.13;;;;;;;18.59;50.53;95269.09;5070061;28;20834;-63
2021/06/06 05:12:19;;;;;;;16.63;11.40;;;;;;;18.52;50.58;95258.84;5065048;28;20784;-63
2021/06/06 05:14:47;;;;;;;17.13;11.20;;;;;;;18.81;50.17;95261.22;5051938;28;20925;-64
2021/06/06 05:17:15;;;;;;;20.33;11.57;;;;;;;18.95;50.02;95251.34;5057195;28;20474;-64
2021/06/06 05:19:49;;;;;;;17.00;11.23;;;;;;;19.06;49.94;95263.31;5057486;28;20866;-63
2021/06/06 05:22:18;;;;;;;18.07;11.27;;;;;;;19.19;50.68;95257.97;5058582;28;20486;-63
2021/06/06 05:24:47;;;;;;;17.30;11.57;;;;;;;19.10;50.07;95259.75;5058888;28;20446;-63
2021/06/06 05:27:17;;;;;;;18.13;12.23;;;;;;;18.98;50.18;95251.53;5066926;28;20474;-63
2021/06/06 05:29:45;;;;;;;21.93;13.03;;;;;;;18.64;50.79;95255.72;5061198;28;20552;-63
2021/06/06 05:32:12;;;;;;;19.47;12.43;;;;;;;18.80;50.83;95249.78;5053853;28;20465;-64
2021/06/06 05:34:42;;;;;;;18.87;12.07;;;;;;;18.60;50.86;95258.19;5051502;28;20443;-62
2021/06/06 05:37:13;;;;;;;14.67;12.67;;;;;;;18.32;51.42;95247.84;5057078;28;20503;-65
2021/06/06 05:39:42;;;;;;;16.80;12.20;;;;;;;18.40;51.51;95253.25;5070938;28;20457;-63
2021/06/06 05:42:10;;;;;;;17.10;12.97;;;;;;;19.06;50.82;95248.19;5066862;28;20471;-63
2021/06/06 05:44:37;;;;;;;17.83;12.40;;;;;;;19.18;50.43;95256.38;5062313;28;20470;-63
2021/06/06 05:47:05;;;;;;;18.87;12.47;;;;;;;19.01;51.47;95255.47;5070646;28;20435;-63
2021/06/06 05:49:32;;;;;;;19.40;12.40;;;;;;;19.45;51.24;95260.06;5071570;28;20536;-63
2021/06/06 05:52:06;;;;;;;19.17;12.60;;;;;;;19.65;51.04;95244.41;5069813;28;20994;-64
2021/06/06 05:54:33;;;;;;;15.37;12.23;;;;;;;19.53;51.18;95251.38;5070930;28;20873;-63
2021/06/06 05:57:00;;;;;;;24.30;12.33;;;;;;;19.89;49.51;95250.19;5070816;28;20447;-63
2021/06/06 05:59:26;;;;;;;16.07;11.73;;;;;;;20.08;48.39;95244.66;5068740;28;20479;-67
2021/06/06 06:01:53;;;;;;;17.87;11.90;;;;;;;20.11;48.98;95241.38;5070788;28;20465;-67
2021/06/06 06:04:20;;;;;;;17.77;10.90;;;;;;;20.08;50.31;95248.13;5056216;28;20499;-68
2021/06/06 06:06:48;;;;;;;14.83;9.87;;;;;;;20.10;49.51;95242.47;5052514;28;20193;-67
2021/06/06 06:09:15;;;;;;;17.13;11.67;;;;;;;20.19;49.34;95243.34;5049361;28;20210;-67
2021/06/06 06:11:43;;;;;;;14.73;10.73;;;;;;;20.27;48.43;95239.94;5060266;28;20556;-68
2021/06/06 06:14:10;;;;;;;17.60;10.07;;;;;;;20.22;49.14;95247.25;5066389;28;20196;-67
2021/06/06 06:16:39;;;;;;;15.67;9.77;;;;;;;20.24;48.66;95253.06;5063593;28;20196;-66
2021/06/06 06:19:08;;;;;;;16.70;10.27;;;;;;;20.29;49.46;95247.59;5063385;28;20480;-66
2021/06/06 06:21:36;;;;;;;18.23;9.00;;;;;;;20.53;48.37;95248.00;5057633;28;20230;-67
2021/06/06 06:24:03;;;;;;;14.67;9.57;;;;;;;20.57;47.86;95249.72;5054113;28;20640;-67
2021/06/06 06:26:31;;;;;;;13.43;9.90;;;;;;;20.51;47.96;95245.63;5061515;28;20206;-66
2021/06/06 06:29:32;;;;;;;15.13;10.33;;;;;;;20.83;47.69;95242.59;5055909;28;20257;-68
2021/06/06 06:32:10;;;;;;;14.33;10.27;;;;;;;20.87;47.94;95243.56;5065622;28;20195;-67
2021/06/06 06:34:40;;;;;;;11.67;7.73;;;;;;;20.88;47.40;95245.09;5065145;28;20437;-68
2021/06/06 06:37:08;;;;;;;13.60;9.03;;;;;;;20.97;47.85;95250.44;5067469;28;20187;-66
2021/06/06 06:39:35;;;;;;;14.13;8.63;;;;;;;21.14;47.19;95248.63;5053951;28;20262;-68
2021/06/06 06:42:03;;;;;;;14.70;8.40;;;;;;;20.84;46.85;95248.69;5052761;28;20231;-68
2021/06/06 06:44:30;;;;;;;11.20;8.70;;;;;;;21.05;47.84;95249.72;5047927;28;20199;-67
2021/06/06 06:47:06;;;;;;;11.90;9.00;;;;;;;20.98;47.40;95247.47;5059044;28;20651;-67
2021/06/06 06:49:33;;;;;;;12.47;7.87;;;;;;;21.26;46.47;95244.56;5065778;28;20291;-66
2021/06/06 06:52:00;;;;;;;13.43;7.53;;;;;;;21.48;46.35;95247.81;5056770;28;20196;-67
2021/06/06 06:54:27;;;;;;;8.97;7.10;;;;;;;21.28;45.97;95243.13;5055943;28;20198;-66
2021/06/06 06:56:54;;;;;;;8.23;7.43;;;;;;;21.40;45.99;95245.19;5059055;28;20212;-67
2021/06/06 06:59:27;;;;;;;11.40;7.60;;;;;;;21.47;43.97;95242.81;5059316;28;20472;-68
2021/06/06 07:01:55;;;;;;;10.93;7.47;;;;;;;21.49;45.20;95243.28;5062758;28;20270;-66
2021/06/06 07:04:22;;;;;;;10.83;7.60;;;;;;;21.65;45.52;95247.81;5061707;28;20686;-66
2021/06/06 07:06:52;;;;;;;9.67;8.60;;;;;;;21.63;46.32;95241.22;5050829;28;20685;-67
2021/06/06 07:09:19;;;;;;;9.23;7.27;;;;;;;21.65;46.07;95234.47;5073492;28;20196;-67
2021/06/06 07:11:46;;;;;;;12.67;7.53;;;;;;;21.66;46.35;95243.28;5061252;28;20191;-67
2021/06/06 07:14:14;;;;;;;8.60;7.70;;;;;;;21.81;46.13;95229.44;5062958;28;20196;-67
2021/06/06 07:16:41;;;;;;;11.50;7.47;;;;;;;22.03;45.33;95231.91;5060418;28;20197;-69
2021/06/06 07:19:08;;;;;;;10.57;7.60;;;;;;;22.08;45.13;95229.06;5057330;28;20199;-69
2021/06/06 07:21:35;;;;;;;14.60;7.83;;;;;;;22.00;45.66;95232.56;5055682;28;20211;-68
2021/06/06 07:24:03;;;;;;;10.90;7.27;;;;;;;22.17;44.62;95211.13;5064575;28;20200;-68
2021/06/06 07:26:44;;;;;;;13.40;8.10;;;;;;;22.43;44.00;95230.50;5062096;28;20193;-68
2021/06/06 07:29:14;;;;;;;10.93;7.90;;;;;;;22.42;42.87;95228.94;5062096;28;20191;-68
2021/06/06 07:31:43;;;;;;;10.73;7.63;;;;;;;22.16;44.42;95228.25;5062374;28;20235;-67
2021/06/06 07:34:13;;;;;;;8.70;7.80;;;;;;;21.71;44.67;95225.22;5064549;28;20629;-67
2021/06/06 07:36:41;;;;;;;10.70;7.70;;;;;;;22.20;44.57;95226.53;5056598;28;20275;-67
2021/06/06 07:39:08;;;;;;;9.17;7.40;;;;;;;22.44;44.06;95213.38;5061194;28;20196;-66
2021/06/06 07:41:35;;;;;;;8.53;7.20;;;;;;;22.68;42.88;95221.59;5058555;28;20727;-68
2021/06/06 07:44:03;;;;;;;9.37;7.47;;;;;;;22.96;41.86;95216.56;5059622;28;20582;-66
2021/06/06 07:46:30;;;;;;;13.80;6.57;;;;;;;22.87;44.35;95221.97;5063826;28;20635;-66
2021/06/06 07:48:59;;;;;;;8.27;6.70;;;;;;;23.11;42.84;95214.09;5060863;28;20252;-67
2021/06/06 07:51:27;;;;;;;11.07;7.47;;;;;;;23.31;43.02;95211.75;5064187;28;20214;-66
2021/06/06 07:53:54;;;;;;;9.07;6.90;;;;;;;23.48;42.90;95208.94;5065477;28;20224;-67
2021/06/06 07:56:22;;;;;;;9.70;7.17;;;;;;;22.96;42.68;95206.66;5059202;28;20287;-65
2021/06/06 07:58:49;;;;;;;12.43;7.07;;;;;;;23.28;42.50;95207.03;5063257;28;20192;-67
2021/06/06 08:01:16;;;;;;;12.37;7.13;;;;;;;22.50;43.42;95208.66;5068746;28;20183;-67
2021/06/06 08:03:43;;;;;;;12.07;7.00;;;;;;;22.90;43.05;95210.59;5069668;28;20711;-67
2021/06/06 08:06:11;;;;;;;10.13;7.50;;;;;;;22.70;42.94;95207.94;5062639;28;20198;-66
2021/06/06 08:08:38;;;;;;;8.50;7.50;;;;;;;22.57;42.81;95204.38;5054104;28;20199;-66
2021/06/06 08:11:07;;;;;;;11.43;7.63;;;;;;;22.98;43.22;95207.13;5069122;28;20662;-67
2021/06/06 08:13:35;;;;;;;10.27;8.10;;;;;;;22.65;43.17;95198.22;5064251;28;20575;-69
2021/06/06 08:16:03;;;;;;;10.67;7.63;;;;;;;22.74;43.22;95201.59;5057644;28;20291;-66
2021/06/06 08:18:34;;;;;;;32.03;27.73;;;;;;;23.10;42.68;95196.47;5062832;28;20658;-65
2021/06/06 08:21:30;;;;;;;34.30;30.80;;;;;;;23.33;42.30;95188.16;5072129;28;20202;-66
2021/06/06 08:23:57;;;;;;;12.50;8.03;;;;;;;23.66;42.53;95188.94;5071309;28;20666;-64
2021/06/06 08:26:25;;;;;;;10.70;8.17;;;;;;;23.73;41.84;95191.84;5072782;28;20568;-65
2021/06/06 08:28:54;;;;;;;11.33;8.33;;;;;;;24.15;41.60;95187.94;5069389;28;20214;-67
2021/06/06 08:31:24;;;;;;;11.57;9.27;;;;;;;24.43;41.21;95188.06;5069558;28;20227;-67
2021/06/06 08:33:52;;;;;;;27.70;22.97;;;;;;;24.72;41.97;95180.63;5060637;28;20230;-65
2021/06/06 08:36:29;;;;;;;11.97;8.40;;;;;;;24.84;41.02;95185.16;5062300;28;20572;-65
2021/06/06 08:38:58;;;;;;;10.30;8.20;;;;;;;24.51;40.90;95174.56;5058834;28;20299;-64
2021/06/06 08:41:42;;;;;;;32.60;25.93;;;;;;;24.68;41.29;95163.59;5073092;28;20204;-65
2021/06/06 08:44:17;;;;;;;18.30;14.40;;;;;;;24.77;39.12;95166.97;5052803;28;20253;-65
2021/06/06 08:47:11;;;;;;;16.03;9.37;;;;;;;25.02;39.98;95163.13;5066617;28;20209;-65
2021/06/06 08:49:45;;;;;;;10.83;7.33;;;;;;;25.35;38.92;95160.19;5070679;28;20221;-65
2021/06/06 08:52:15;;;;;;;12.60;7.67;;;;;;;25.56;38.95;95154.66;5057486;28;20271;-65
2021/06/06 08:54:54;;;;;;;9.07;7.30;;;;;;;25.53;38.19;95155.38;5072575;28;20202;-64
2021/06/06 08:57:35;;;;;;;8.17;7.33;;;;;;;25.58;38.29;95152.41;5071780;28;20192;-64
2021/06/06 09:00:12;;;;;;;10.93;7.97;;;;;;;25.22;38.56;95139.16;5072405;28;20294;-65
2021/06/06 09:02:52;;;;;;;65.10;57.97;;;;;;;25.65;39.19;95141.88;5066286;28;20231;-67
2021/06/06 09:05:36;;;;;;;102.03;66.87;;;;;;;26.19;39.63;95134.81;5059644;28;20200;-66
2021/06/06 09:08:06;;;;;;;10.60;9.13;;;;;;;25.52;37.90;95132.31;5050593;28;20240;-65
2021/06/06 09:10:37;;;;;;;11.67;8.53;;;;;;;25.72;38.13;95125.94;5052068;28;20212;-65
2021/06/06 09:13:07;;;;;;;14.53;9.27;;;;;;;26.23;37.50;95119.56;5051681;28;20204;-65
2021/06/06 09:15:35;;;;;;;9.60;6.80;;;;;;;25.69;37.29;95132.00;5072089;28;20302;-66
2021/06/06 09:18:23;;;;;;;9.30;6.77;;;;;;;26.20;38.11;95124.84;5059202;28;20236;-65
2021/06/06 09:20:51;;;;;;;7.20;6.50;;;;;;;26.40;35.92;95129.94;5052159;28;20196;-68
2021/06/06 09:23:29;;;;;;;9.90;7.60;;;;;;;26.01;35.14;95128.22;5065886;28;20215;-68
2021/06/06 09:26:05;;;;;;;8.07;7.27;;;;;;;25.91;35.50;95131.44;5064332;28;20196;-66
2021/06/06 09:28:35;;;;;;;11.07;6.80;;;;;;;25.62;35.95;95123.78;5067236;28;20693;-66
2021/06/06 09:31:10;;;;;;;7.93;7.13;;;;;;;26.13;35.73;95124.69;5071106;28;20235;-68
2021/06/06 09:34:00;;;;;;;61.67;55.80;;;;;;;26.19;36.00;95102.56;5055873;28;20278;-66
2021/06/06 09:36:43;;;;;;;36.43;11.50;;;;;;;25.54;35.99;95109.41;5062093;28;20193;-65
2021/06/06 09:39:20;;;;;;;10.10;7.80;;;;;;;26.17;35.40;95109.44;5059967;28;20203;-66
2021/06/06 09:41:58;;;;;;;26.40;8.73;;;;;;;26.79;34.97;95104.72;5069103;28;20203;-67
2021/06/06 09:44:29;;;;;;;27.63;8.33;;;;;;;27.06;36.55;95091.44;5061113;28;20204;-67
2021/06/06 09:47:13;;;;;;;8.23;7.40;;;;;;;26.82;34.02;95104.00;5054695;28;20649;-65
2021/06/06 09:49:46;;;;;;;8.83;7.37;;;;;;;26.76;33.96;95105.44;5062148;28;20719;-69
2021/06/06 09:52:27;;;;;;;8.87;7.10;;;;;;;27.17;34.08;95103.19;5071081;28;20201;-65
2021/06/06 09:54:58;;;;;;;8.40;7.50;;;;;;;27.16;33.14;95091.63;5071273;28;20231;-67
2021/06/06 09:57:38;;;;;;;36.23;20.47;;;;;;;26.70;34.08;95084.53;5070816;28;20192;-67
2021/06/06 10:00:11;;;;;;;16.57;13.60;;;;;;;27.24;34.18;95103.31;5066664;28;20199;-67
2021/06/06 10:02:42;;;;;;;11.23;8.50;;;;;;;27.19;32.00;95090.16;5070873;28;20227;-65
2021/06/06 10:05:24;;;;;;;12.50;7.87;;;;;;;27.02;32.43;95096.75;5058998;28;20287;-67
2021/06/06 10:08:20;;;;;;;11.07;8.57;;;;;;;27.20;31.42;95089.00;5064889;28;20602;-68
2021/06/06 10:10:50;;;;;;;9.40;6.50;;;;;;;27.18;31.24;95089.38;5060869;28;20567;-68
2021/06/06 10:13:22;;;;;;;8.53;6.60;;;;;;;27.56;31.31;95085.88;5052179;28;20185;-68
2021/06/06 10:15:56;;;;;;;8.37;7.53;;;;;;;27.53;31.93;95084.69;5062579;28;20197;-70
2021/06/06 10:18:37;;;;;;;7.37;6.67;;;;;;;27.14;31.46;95083.16;5050666;28;20260;-66
2021/06/06 10:21:11;;;;;;;8.30;7.60;;;;;;;27.01;31.10;95074.44;5060535;28;20194;-70
2021/06/06 10:23:42;;;;;;;8.47;7.43;;;;;;;27.21;32.35;95066.38;5070344;28;20261;-70
2021/06/06 10:26:42;;;;;;;7.73;7.03;;;;;;;27.77;31.29;95056.63;5069861;28;20266;-68
2021/06/06 10:29:16;;;;;;;10.67;7.03;;;;;;;27.21;31.33;95063.69;5070750;28;20639;-67
2021/06/06 10:31:45;;;;;;;11.60;10.33;;;;;;;27.29;30.88;95060.75;5063472;28;20219;-67
2021/06/06 10:34:51;;;;;;;35.47;28.93;;;;;;;27.24;31.33;95062.97;5067639;28;20192;-68
2021/06/06 10:37:17;;;;;;;7.50;6.77;;;;;;;27.96;32.36;95048.50;5020154;28;20312;-67
2021/06/06 10:40:01;;;;;;;9.00;6.77;;;;;;;27.52;31.11;95061.59;5028356;28;20216;-68
2021/06/06 10:42:35;;;;;;;7.07;6.40;;;;;;;27.37;32.53;95062.47;5039874;28;20219;-67
2021/06/06 10:45:06;;;;;;;9.73;7.60;;;;;;;28.07;32.12;95049.44;5069018;28;20270;-66
2021/06/06 10:47:40;;;;;;;8.00;7.10;;;;;;;28.01;31.10;95056.25;5050012;28;20188;-65
2021/06/06 10:50:22;;;;;;;8.90;6.30;;;;;;;27.63;31.19;95051.00;5065008;28;20293;-66
2021/06/06 10:52:52;;;;;;;6.97;6.27;;;;;;;28.13;31.03;95042.59;5070456;28;20234;-67
2021/06/06 10:55:25;;;;;;;7.53;6.30;;;;;;;28.02;30.43;95041.66;5070278;28;20206;-67
2021/06/06 10:57:52;;;;;;;12.20;6.73;;;;;;;28.34;29.97;95044.84;5070245;28;20196;-67
2021/06/06 11:00:39;;;;;;;6.87;6.17;;;;;;;28.26;29.83;95035.88;5056179;28;20258;-67
2021/06/06 11:03:22;;;;;;;6.73;6.03;;;;;;;28.22;30.14;95035.03;5069845;28;20234;-66
2021/06/06 11:06:00;;;;;;;6.83;6.13;;;;;;;28.53;30.33;95034.72;5059691;28;20271;-68
2021/06/06 11:08:27;;;;;;;7.63;6.53;;;;;;;28.96;29.16;95025.22;5063873;28;20195;-67
2021/06/06 11:11:08;;;;;;;6.50;5.43;;;;;;;29.14;29.00;95026.25;5060237;28;20708;-67
2021/06/06 11:13:39;;;;;;;32.33;26.20;;;;;;;28.50;29.66;95023.88;5056423;28;20203;-67
2021/06/06 11:16:21;;;;;;;36.37;32.90;;;;;;;28.28;29.49;95036.28;5059099;28;20200;-68
2021/06/06 11:19:13;;;;;;;10.60;7.07;;;;;;;27.92;30.20;95026.06;5057586;28;20657;-68
2021/06/06 11:21:43;;;;;;;10.23;6.20;;;;;;;28.25;29.55;95022.75;5069151;28;20199;-67
2021/06/06 11:24:28;;;;;;;9.07;6.73;;;;;;;28.67;29.80;95024.13;5062253;28;20208;-68
2021/06/06 11:27:10;;;;;;;9.33;6.10;;;;;;;28.21;29.38;95025.38;5065616;28;20548;-67
2021/06/06 11:30:04;;;;;;;7.67;4.87;;;;;;;28.67;28.29;95017.94;5069858;28;20202;-65
2021/06/06 11:32:52;;;;;;;9.30;4.20;;;;;;;29.17;27.46;95022.00;5056080;28;20200;-66
2021/06/06 11:35:34;;;;;;;5.37;3.77;;;;;;;28.89;26.40;95023.22;5054217;28;20283;-68
2021/06/06 11:38:31;;;;;;;5.00;4.20;;;;;;;29.09;24.83;95029.22;5062756;28;20204;-69
2021/06/06 11:41:15;;;;;;;7.10;3.40;;;;;;;29.34;24.61;95029.53;5049258;28;20279;-65
2021/06/06 11:43:49;;;;;;;4.70;3.23;;;;;;;29.60;24.23;95024.75;5067056;28;20218;-66
2021/06/06 11:49:23;;;;;;;5.50;4.33;;;;;;;29.70;29.92;95016.00;5061705;28;20674;-68
2021/06/06 11:51:50;;;;;;;6.87;4.93;;;;;;;29.44;31.14;95018.81;5068093;28;20267;-68
2021/06/06 11:54:23;;;;;;;12.13;9.87;;;;;;;29.63;30.66;95004.34;5068618;28;20211;-67
2021/06/06 11:56:53;;;;;;;8.07;4.90;;;;;;;29.33;29.92;94995.56;5073713;28;20204;-68
2021/06/06 11:59:31;;;;;;;7.00;4.30;;;;;;;29.50;30.25;95006.53;5068719;28;20218;-66